Time;durP1;ratioP1;P1;durP2;ratioP2;P2;SDS_P1;SDS_P2;PMS_P1;PMS_P2;Temp;Humidity;BMP_temperature;BMP_pressure;BME280_temperature;BME280_humidity;BME280_pressure;Samples;Min_cycle;Max_cycle;Signal;HPM_P1;HPM_P2
2021/12/08 00:00:07;;;;;;;6.00;2.23;;;7.80;99.90;;;;;;5038024;28;20196;-85
2021/12/08 00:02:33;;;;;;;7.20;2.33;;;7.80;99.90;;;;;;5037788;28;20737;-85
2021/12/08 00:04:58;;;;;;;5.13;2.40;;;7.90;99.90;;;;;;5037578;28;20245;-85
2021/12/08 00:07:25;;;;;;;5.90;2.53;;;7.80;99.90;;;;;;5036818;28;20532;-86
2021/12/08 00:10:04;;;;;;;7.47;2.30;;;7.80;99.90;;;;;;5037141;28;20223;-83
2021/12/08 00:15:14;;;;;;;4.63;1.87;;;7.90;99.90;;;;;;5018814;28;20612;-82
2021/12/08 00:17:40;;;;;;;7.57;2.53;;;7.90;99.90;;;;;;5024050;28;20154;-83
2021/12/08 00:20:07;;;;;;;8.03;2.50;;;7.90;99.90;;;;;;5021260;28;20213;-82
2021/12/08 00:22:33;;;;;;;7.97;2.77;;;8.00;99.90;;;;;;5016507;28;20174;-85
2021/12/08 00:25:02;;;;;;;4.73;2.00;;;8.00;99.90;;;;;;5017294;28;20169;-85
2021/12/08 00:27:28;;;;;;;6.43;2.00;;;8.00;99.90;;;;;;5016974;28;20171;-82
2021/12/08 00:29:54;;;;;;;7.17;2.17;;;8.00;99.90;;;;;;5016767;28;20197;-87
2021/12/08 00:32:25;;;;;;;8.47;2.53;;;7.90;99.90;;;;;;5016470;28;20233;-85
2021/12/08 00:34:51;;;;;;;7.97;2.80;;;8.00;99.90;;;;;;5015848;28;20498;-85
2021/12/08 00:37:17;;;;;;;8.10;2.90;;;8.00;99.90;;;;;;5016355;28;20224;-85
2021/12/08 00:39:42;;;;;;;7.57;2.13;;;7.90;99.90;;;;;;5018427;28;20163;-85
2021/12/08 00:42:08;;;;;;;6.70;3.03;;;7.90;99.90;;;;;;5017276;28;20261;-84
2021/12/08 00:44:38;;;;;;;9.93;2.43;;;7.80;99.90;;;;;;5016531;28;20635;-86
2021/12/08 00:47:05;;;;;;;7.77;2.70;;;7.90;99.90;;;;;;5016733;28;20170;-87
2021/12/08 00:49:31;;;;;;;12.50;2.97;;;7.90;99.90;;;;;;5016840;28;20226;-84
2021/12/08 00:51:57;;;;;;;9.37;2.93;;;8.00;99.90;;;;;;5015787;28;20222;-85
2021/12/08 00:54:23;;;;;;;12.43;3.20;;;8.00;99.90;;;;;;5017348;28;20257;-85
2021/12/08 00:56:49;;;;;;;9.57;3.00;;;8.10;99.90;;;;;;5019715;28;20589;-84
2021/12/08 00:59:14;;;;;;;10.87;2.87;;;8.10;99.90;;;;;;5032526;28;20173;-82
2021/12/08 01:01:40;;;;;;;7.47;2.20;;;8.00;99.90;;;;;;5040386;28;20192;-81
2021/12/08 01:04:07;;;;;;;6.13;2.53;;;8.00;99.90;;;;;;5039371;28;20183;-83
2021/12/08 01:06:33;;;;;;;10.17;2.17;;;8.00;99.90;;;;;;5039199;28;20177;-84
2021/12/08 01:09:03;;;;;;;11.17;2.70;;;7.90;99.90;;;;;;5037507;28;20171;-86
2021/12/08 01:11:35;;;;;;;6.03;2.63;;;7.90;99.90;;;;;;5022773;28;20154;-84
2021/12/08 01:14:01;;;;;;;10.97;2.67;;;7.80;99.90;;;;;;5023451;28;20186;-84
2021/12/08 01:16:27;;;;;;;7.57;1.90;;;7.80;99.90;;;;;;5020551;28;20645;-85
2021/12/08 01:18:53;;;;;;;6.03;1.60;;;7.80;99.90;;;;;;5016682;28;20158;-84
2021/12/08 01:21:20;;;;;;;9.10;2.17;;;7.80;99.90;;;;;;5018184;28;20197;-85
2021/12/08 01:23:46;;;;;;;6.47;2.07;;;7.80;99.90;;;;;;5039223;28;20146;-83
2021/12/08 01:26:12;;;;;;;6.43;1.83;;;7.70;99.90;;;;;;5039427;28;20178;-79
2021/12/08 01:28:40;;;;;;;12.77;2.30;;;7.70;99.90;;;;;;5039364;28;20230;-83
2021/12/08 01:31:12;;;;;;;5.80;1.80;;;7.80;99.90;;;;;;5038728;28;20162;-84
2021/12/08 01:33:41;;;;;;;8.17;1.70;;;7.70;99.90;;;;;;5032840;28;20278;-84
2021/12/08 01:36:08;;;;;;;5.30;1.60;;;7.60;99.50;;;;;;5024925;28;20194;-83
2021/12/08 01:38:35;;;;;;;6.53;1.40;;;7.60;98.70;;;;;;5021005;28;20176;-83
2021/12/08 01:41:01;;;;;;;6.03;1.97;;;7.50;98.00;;;;;;5018516;28;20170;-82
2021/12/08 01:43:28;;;;;;;4.63;1.47;;;7.70;95.60;;;;;;5017922;28;20225;-84
2021/12/08 01:46:08;;;;;;;6.87;1.70;;;7.70;94.70;;;;;;5015392;28;20624;-83
2021/12/08 01:48:36;;;;;;;5.43;1.30;;;7.60;95.20;;;;;;5015027;28;20170;-84
2021/12/08 01:51:06;;;;;;;6.73;1.70;;;7.60;95.80;;;;;;5014735;28;20182;-83
2021/12/08 01:53:32;;;;;;;8.63;1.87;;;7.70;96.00;;;;;;5013642;28;20214;-83
2021/12/08 01:55:59;;;;;;;7.47;1.90;;;7.70;96.30;;;;;;5014487;28;20238;-84
2021/12/08 01:58:28;;;;;;;6.93;2.33;;;7.70;97.00;;;;;;5015054;28;20175;-84
2021/12/08 02:01:01;;;;;;;6.70;2.13;;;7.80;97.90;;;;;;5015062;28;20201;-84
2021/12/08 02:03:27;;;;;;;6.13;1.70;;;7.70;98.50;;;;;;5014896;28;20171;-84
2021/12/08 02:05:54;;;;;;;6.00;2.20;;;7.70;99.10;;;;;;5015191;28;20559;-83
2021/12/08 02:08:20;;;;;;;6.47;1.70;;;7.60;99.50;;;;;;5014650;28;20194;-83
2021/12/08 02:10:48;;;;;;;7.93;2.30;;;7.70;99.70;;;;;;5012458;28;20178;-84
2021/12/08 02:13:15;;;;;;;7.47;1.90;;;7.80;99.10;;;;;;5019740;28;20224;-83
2021/12/08 02:15:42;;;;;;;5.23;1.60;;;7.80;98.00;;;;;;5040430;28;20201;-85
2021/12/08 02:18:11;;;;;;;3.90;1.73;;;7.80;98.40;;;;;;5039581;28;20170;-83
2021/12/08 02:20:39;;;;;;;8.13;2.20;;;7.70;98.70;;;;;;5036420;28;20161;-84
2021/12/08 02:23:05;;;;;;;3.53;1.50;;;7.60;98.50;;;;;;5043644;28;20561;-83
2021/12/08 02:25:31;;;;;;;6.33;1.70;;;7.60;98.20;;;;;;5039363;28;20181;-83
2021/12/08 02:27:59;;;;;;;5.37;1.60;;;7.70;97.20;;;;;;5044392;28;20169;-85
2021/12/08 02:47:17;;;;;;;4.57;1.40;;;7.20;97.30;;;;;;5033997;28;20172;-83
2021/12/08 02:49:44;;;;;;;6.07;1.37;;;7.20;97.10;;;;;;5034086;28;20189;-84
2021/12/08 02:52:12;;;;;;;7.07;1.33;;;7.10;97.10;;;;;;5032738;28;20209;-83
2021/12/08 02:54:42;;;;;;;6.70;1.87;;;7.10;96.70;;;;;;5032524;28;20266;-84
2021/12/08 02:57:09;;;;;;;7.23;1.50;;;7.10;96.60;;;;;;5033080;28;20223;-85
2021/12/08 02:59:35;;;;;;;4.10;1.50;;;7.10;96.40;;;;;;5033198;28;20170;-84
2021/12/08 03:02:02;;;;;;;7.27;1.93;;;7.10;96.20;;;;;;5034905;28;20579;-84
2021/12/08 03:04:28;;;;;;;4.23;1.30;;;7.10;96.10;;;;;;5034590;28;20178;-84
2021/12/08 03:06:53;;;;;;;5.63;1.30;;;7.10;95.30;;;;;;5034855;28;20177;-85
2021/12/08 03:09:19;;;;;;;6.03;1.60;;;7.20;94.80;;;;;;5035056;28;20178;-85
2021/12/08 03:11:48;;;;;;;6.57;1.37;;;7.00;94.90;;;;;;5036955;28;20177;-83
2021/12/08 03:14:16;;;;;;;7.83;1.50;;;7.10;95.00;;;;;;5028972;28;20190;-83
2021/12/08 03:16:48;;;;;;;6.57;1.90;;;7.10;94.70;;;;;;5035263;28;20193;-80
2021/12/08 03:19:13;;;;;;;5.63;1.80;;;7.10;95.00;;;;;;5037926;28;20237;-81
2021/12/08 03:21:40;;;;;;;6.77;1.90;;;7.00;95.50;;;;;;5038908;28;20159;-84
2021/12/08 03:24:26;;;;;;;3.50;1.60;;;7.00;96.10;;;;;;5041710;28;20158;-84
2021/12/08 03:27:07;;;;;;;5.97;1.50;;;6.90;96.50;;;;;;5039183;28;20174;-82
2021/12/08 03:29:51;;;;;;;5.50;1.50;;;6.90;96.70;;;;;;5034968;28;20241;-82
2021/12/08 03:32:31;;;;;;;6.50;1.63;;;6.90;97.20;;;;;;5032061;28;20205;-84
2021/12/08 03:34:59;;;;;;;7.43;2.33;;;6.90;97.50;;;;;;5040062;28;20158;-82
2021/12/08 03:37:45;;;;;;;7.77;1.87;;;6.80;97.30;;;;;;5039139;28;20178;-84
2021/12/08 03:40:17;;;;;;;7.73;1.97;;;6.80;97.60;;;;;;5040067;28;20174;-83
2021/12/08 03:42:46;;;;;;;10.07;1.83;;;6.80;97.70;;;;;;5037143;28;20202;-82
2021/12/08 03:45:25;;;;;;;8.47;1.80;;;6.70;98.00;;;;;;5033709;28;20205;-83
2021/12/08 03:48:02;;;;;;;9.33;2.43;;;6.70;98.40;;;;;;5033468;28;20166;-83
2021/12/08 03:50:34;;;;;;;6.07;1.93;;;6.70;98.30;;;;;;5030133;28;20182;-84
2021/12/08 03:53:16;;;;;;;4.97;1.40;;;6.70;98.40;;;;;;5024165;28;20296;-85
2021/12/08 03:55:46;;;;;;;8.43;2.37;;;6.70;98.60;;;;;;5018749;28;20213;-85
2021/12/08 03:58:13;;;;;;;8.03;1.87;;;6.70;98.70;;;;;;5018193;28;20155;-83
2021/12/08 04:00:40;;;;;;;11.50;2.80;;;6.60;98.80;;;;;;5017973;28;20174;-84
2021/12/08 04:03:07;;;;;;;14.97;2.23;;;6.90;98.80;;;;;;5017185;28;20171;-83
2021/12/08 04:05:52;;;;;;;7.57;2.20;;;6.70;98.20;;;;;;5020305;28;20205;-85
2021/12/08 04:08:28;;;;;;;10.00;2.63;;;6.70;98.30;;;;;;5020309;28;20162;-84
2021/12/08 04:10:54;;;;;;;6.60;1.87;;;6.70;98.10;;;;;;5038554;28;20162;-81
2021/12/08 04:13:28;;;;;;;7.37;2.10;;;6.60;98.30;;;;;;5043546;28;20265;-84
2021/12/08 04:15:55;;;;;;;17.17;2.60;;;6.60;98.50;;;;;;5059440;28;20172;-83
2021/12/08 04:18:24;;;;;;;5.83;2.00;;;6.60;98.50;;;;;;5044053;28;20269;-84
2021/12/08 04:20:55;;;;;;;8.83;2.47;;;6.60;98.10;;;;;;5038032;28;20169;-84
2021/12/08 04:23:25;;;;;;;9.70;2.43;;;6.50;98.20;;;;;;5038083;28;20312;-84
2021/12/08 04:25:55;;;;;;;11.00;2.70;;;6.50;98.30;;;;;;5038943;28;20170;-82
2021/12/08 04:28:26;;;;;;;12.17;2.70;;;6.50;98.50;;;;;;5043750;28;20174;-84
2021/12/08 04:30:55;;;;;;;6.77;2.30;;;6.50;98.30;;;;;;5052102;28;20158;-83
2021/12/08 04:33:21;;;;;;;10.67;2.87;;;6.50;98.00;;;;;;5059967;28;20216;-82
2021/12/08 04:35:51;;;;;;;9.03;2.67;;;6.50;98.00;;;;;;5060571;28;20170;-82
2021/12/08 04:38:24;;;;;;;7.50;2.90;;;6.40;97.80;;;;;;5060115;28;20189;-80
2021/12/08 04:41:03;;;;;;;11.53;2.20;;;6.40;97.50;;;;;;5034781;28;20182;-81
2021/12/08 04:43:52;;;;;;;7.20;2.40;;;6.40;97.40;;;;;;5048767;28;20216;-81
2021/12/08 04:51:48;;;;;;;6.70;2.10;;;6.30;97.40;;;;;;5046468;28;20697;-81
2021/12/08 05:00:30;;;;;;;5.70;2.23;;;6.40;96.90;;;;;;5052514;28;20193;-84
2021/12/08 05:06:03;;;;;;;6.07;2.07;;;6.30;97.20;;;;;;5051415;28;20261;-83
2021/12/08 05:08:41;;;;;;;6.60;2.30;;;6.30;96.90;;;;;;5046134;28;20169;-83
2021/12/08 05:11:16;;;;;;;6.20;1.57;;;6.40;96.60;;;;;;5037685;28;20670;-83
2021/12/08 05:13:46;;;;;;;8.33;1.60;;;6.30;96.60;;;;;;5036097;28;20300;-87
2021/12/08 05:16:13;;;;;;;5.70;1.90;;;6.30;96.80;;;;;;5036530;28;20165;-85
2021/12/08 05:18:44;;;;;;;7.37;1.80;;;6.30;96.60;;;;;;5036412;28;20170;-84
2021/12/08 05:21:29;;;;;;;7.37;1.70;;;6.30;96.30;;;;;;5036491;28;20224;-85
2021/12/08 05:24:20;;;;;;;4.73;1.63;;;6.30;96.20;;;;;;5036208;28;20235;-83
2021/12/08 05:26:58;;;;;;;8.33;1.50;;;6.20;96.40;;;;;;5035522;28;20174;-84
2021/12/08 05:29:28;;;;;;;6.00;1.27;;;6.20;96.60;;;;;;5038466;28;20165;-84
2021/12/08 05:32:01;;;;;;;5.63;1.53;;;6.20;96.30;;;;;;5035901;28;20170;-85
2021/12/08 05:34:27;;;;;;;5.87;2.27;;;6.20;96.50;;;;;;5038247;28;20583;-85
2021/12/08 05:36:54;;;;;;;9.90;2.57;;;6.30;96.50;;;;;;5036136;28;20176;-84
2021/12/08 05:39:25;;;;;;;5.10;1.53;;;6.20;96.70;;;;;;5036567;28;20165;-85
2021/12/08 05:41:55;;;;;;;12.17;2.27;;;6.20;96.60;;;;;;5035873;28;20630;-84
2021/12/08 05:44:22;;;;;;;8.00;1.97;;;6.20;96.40;;;;;;5035716;28;20195;-84
2021/12/08 05:46:50;;;;;;;9.37;2.00;;;6.20;96.70;;;;;;5037252;28;20169;-85
2021/12/08 05:49:17;;;;;;;7.37;1.60;;;6.20;96.80;;;;;;5035049;28;20340;-83
2021/12/08 05:51:47;;;;;;;7.80;2.43;;;6.20;96.70;;;;;;5037037;28;20174;-83
2021/12/08 05:54:20;;;;;;;6.20;1.70;;;6.20;96.70;;;;;;5036176;28;20240;-85
2021/12/08 05:56:48;;;;;;;7.50;1.77;;;6.20;96.80;;;;;;5036715;28;20586;-83
2021/12/08 05:59:15;;;;;;;4.70;1.70;;;6.20;96.90;;;;;;5041820;28;20169;-83
2021/12/08 06:01:46;;;;;;;6.47;2.33;;;6.20;97.10;;;;;;5045492;28;20188;-82
2021/12/08 06:04:14;;;;;;;6.27;2.27;;;6.20;96.90;;;;;;5041902;28;20184;-84
2021/12/08 06:06:42;;;;;;;8.97;2.73;;;6.20;96.90;;;;;;5035144;28;20181;-84
2021/12/08 06:09:10;;;;;;;5.87;2.80;;;6.30;96.80;;;;;;5035252;28;20204;-86
2021/12/08 06:11:38;;;;;;;7.63;1.77;;;6.30;96.60;;;;;;5034543;28;20186;-85
2021/12/08 06:14:06;;;;;;;4.33;1.53;;;6.30;96.40;;;;;;5028947;28;20195;-84
2021/12/08 06:16:34;;;;;;;6.50;2.13;;;6.40;96.20;;;;;;5021822;28;20178;-82
2021/12/08 06:19:00;;;;;;;8.70;2.23;;;6.40;96.10;;;;;;5025970;28;20171;-82
2021/12/08 06:21:28;;;;;;;5.97;1.80;;;6.40;95.80;;;;;;5028676;28;20186;-83
2021/12/08 06:23:56;;;;;;;8.50;2.10;;;6.50;95.70;;;;;;5024761;28;20166;-85
2021/12/08 06:26:26;;;;;;;6.03;2.07;;;6.50;95.70;;;;;;5023273;28;20269;-85
2021/12/08 06:28:54;;;;;;;5.70;1.90;;;6.60;95.80;;;;;;5023673;28;20206;-82
2021/12/08 06:31:22;;;;;;;8.73;2.00;;;6.50;95.70;;;;;;5022131;28;20200;-85
2021/12/08 06:33:48;;;;;;;9.53;1.73;;;6.50;95.30;;;;;;5022080;28;20206;-85
2021/12/08 06:36:22;;;;;;;6.03;1.87;;;6.50;95.20;;;;;;5028514;28;20233;-85
2021/12/08 06:38:47;;;;;;;8.53;2.47;;;6.50;95.30;;;;;;5029027;28;20182;-82
2021/12/08 06:41:22;;;;;;;7.70;2.07;;;6.50;95.20;;;;;;5024965;28;20564;-82
2021/12/08 06:43:54;;;;;;;7.50;2.13;;;6.50;95.30;;;;;;5028328;28;20192;-81
2021/12/08 06:46:22;;;;;;;5.70;1.83;;;6.50;95.10;;;;;;5036862;28;20165;-85
2021/12/08 06:48:54;;;;;;;6.80;2.10;;;6.50;95.30;;;;;;5033707;28;20173;-83
2021/12/08 06:51:27;;;;;;;8.00;2.60;;;6.40;95.50;;;;;;5035995;28;20253;-87
2021/12/08 06:54:01;;;;;;;8.87;2.00;;;6.50;95.60;;;;;;5034684;28;20344;-88
2021/12/08 06:56:40;;;;;;;6.87;2.00;;;6.50;95.30;;;;;;5036262;28;20161;-87
2021/12/08 06:59:12;;;;;;;8.80;2.40;;;6.50;95.20;;;;;;5034926;28;20165;-85
2021/12/08 07:01:55;;;;;;;6.23;2.13;;;6.50;94.70;;;;;;5034549;28;20540;-85
2021/12/08 07:04:32;;;;;;;10.40;2.30;;;6.50;94.00;;;;;;5038724;28;20173;-87
2021/12/08 07:07:12;;;;;;;7.23;2.10;;;6.50;93.70;;;;;;5037696;28;20165;-85
2021/12/08 07:09:51;;;;;;;8.47;2.50;;;6.50;93.90;;;;;;5038776;28;20665;-85
2021/12/08 07:12:21;;;;;;;5.80;2.30;;;6.50;94.00;;;;;;5046691;28;20202;-86
2021/12/08 07:14:56;;;;;;;7.37;2.03;;;6.50;93.90;;;;;;5055985;28;20177;-84
2021/12/08 07:17:27;;;;;;;8.37;2.70;;;6.50;93.60;;;;;;5056939;28;20216;-82
2021/12/08 07:20:25;;;;;;;8.10;2.30;;;6.50;93.70;;;;;;5053602;28;20181;-82
2021/12/08 07:23:00;;;;;;;4.33;1.83;;;6.40;93.80;;;;;;5054695;28;20158;-85
2021/12/08 07:25:33;;;;;;;6.93;2.57;;;6.40;93.90;;;;;;5048293;28;20158;-84
2021/12/08 07:28:06;;;;;;;8.10;2.10;;;6.40;94.10;;;;;;5047466;28;20181;-84
2021/12/08 07:34:19;;;;;;;9.20;2.20;;;6.40;93.80;;;;;;5056612;28;20220;-84
2021/12/08 07:36:52;;;;;;;8.00;1.60;;;6.30;94.30;;;;;;5052973;28;20162;-83
2021/12/08 07:39:28;;;;;;;8.67;1.77;;;6.30;94.60;;;;;;5048803;28;20185;-85
2021/12/08 07:42:09;;;;;;;7.67;2.30;;;6.30;94.60;;;;;;5040429;28;20257;-85
2021/12/08 07:44:51;;;;;;;8.90;2.33;;;6.30;94.50;;;;;;5037610;28;20549;-85
2021/12/08 07:47:19;;;;;;;8.07;2.47;;;6.30;95.00;;;;;;5038289;28;20174;-85
2021/12/08 07:49:53;;;;;;;4.57;1.77;;;6.20;94.80;;;;;;5045215;28;20533;-85
2021/12/08 07:52:37;;;;;;;6.83;1.90;;;6.20;95.00;;;;;;5043103;28;20210;-86
2021/12/08 07:55:17;;;;;;;8.80;3.20;;;6.20;94.90;;;;;;5051950;28;20185;-84
2021/12/08 07:57:44;;;;;;;6.07;1.63;;;6.20;95.00;;;;;;5056684;28;20166;-80
2021/12/08 08:00:20;;;;;;;8.67;1.97;;;6.30;95.10;;;;;;5056091;28;20150;-84
2021/12/08 08:02:47;;;;;;;5.43;1.73;;;6.20;94.70;;;;;;5056630;28;20176;-85
2021/12/08 08:05:17;;;;;;;6.83;2.00;;;6.30;94.80;;;;;;5057043;28;20158;-82
2021/12/08 08:07:50;;;;;;;7.47;2.00;;;6.30;94.70;;;;;;5057640;28;20169;-81
2021/12/08 08:10:35;;;;;;;5.13;1.80;;;6.30;94.60;;;;;;5060682;28;20166;-83
2021/12/08 08:19:47;;;;;;;9.07;2.17;;;6.40;94.60;;;;;;5060277;28;20164;-86
2021/12/08 08:22:55;;;;;;;5.27;1.93;;;6.30;94.80;;;;;;5057663;28;20245;-88
2021/12/08 08:25:26;;;;;;;5.67;1.73;;;6.40;95.00;;;;;;5053411;28;20261;-88
2021/12/08 08:27:53;;;;;;;6.60;2.10;;;6.40;95.10;;;;;;5050847;28;20653;-88
2021/12/08 08:34:15;;;;;;;5.93;1.50;;;6.40;95.00;;;;;;5043411;28;20201;-89
2021/12/08 08:36:47;;;;;;;6.53;2.27;;;6.50;94.70;;;;;;5041257;28;20172;-89
2021/12/08 08:39:24;;;;;;;7.30;1.90;;;6.40;94.90;;;;;;5038462;28;20263;-86
2021/12/08 08:42:21;;;;;;;6.13;1.67;;;6.40;95.00;;;;;;5040444;28;20248;-89
2021/12/08 08:44:53;;;;;;;9.57;2.10;;;6.50;94.90;;;;;;5025247;28;20264;-89
2021/12/08 08:47:26;;;;;;;4.73;1.77;;;6.50;94.70;;;;;;5039294;28;20166;-88
2021/12/08 08:49:52;;;;;;;6.37;1.90;;;6.50;94.80;;;;;;5040097;28;20240;-85
2021/12/08 08:52:18;;;;;;;7.20;2.33;;;6.50;94.70;;;;;;5037773;28;20200;-86
2021/12/08 08:54:48;;;;;;;5.40;2.10;;;6.60;94.30;;;;;;5040070;28;20177;-87
2021/12/08 08:57:20;;;;;;;6.37;2.07;;;6.60;94.20;;;;;;5033953;28;20193;-83
2021/12/08 08:59:50;;;;;;;10.10;2.60;;;6.60;94.20;;;;;;5037847;28;20177;-88
2021/12/08 09:02:29;;;;;;;9.73;2.27;;;6.70;94.30;;;;;;5036679;28;20243;-84
2021/12/08 09:05:03;;;;;;;6.73;2.20;;;6.60;93.90;;;;;;5037527;28;20173;-83
2021/12/08 09:07:40;;;;;;;7.63;2.10;;;6.60;93.80;;;;;;5039445;28;20168;-83
2021/12/08 09:10:12;;;;;;;5.90;2.20;;;6.60;94.10;;;;;;5037697;28;20181;-81
2021/12/08 09:12:47;;;;;;;9.27;2.07;;;6.70;94.10;;;;;;5035896;28;20584;-80
2021/12/08 09:15:21;;;;;;;6.93;2.30;;;6.70;93.90;;;;;;5033988;28;20718;-79
2021/12/08 09:18:01;;;;;;;9.00;2.70;;;6.70;93.40;;;;;;5034341;28;20178;-81
2021/12/08 09:20:41;;;;;;;5.20;1.90;;;6.70;93.50;;;;;;5033356;28;20176;-81
2021/12/08 09:23:09;;;;;;;5.47;1.90;;;6.70;93.40;;;;;;5035552;28;20165;-81
2021/12/08 09:25:57;;;;;;;7.37;2.60;;;6.70;93.30;;;;;;5035303;28;20181;-82
2021/12/08 09:28:31;;;;;;;6.40;2.00;;;6.80;93.80;;;;;;5028409;28;20188;-83
2021/12/08 09:31:09;;;;;;;6.53;2.13;;;6.80;93.10;;;;;;5031297;28;20241;-82
2021/12/08 09:33:42;;;;;;;7.03;2.20;;;6.80;92.60;;;;;;5036130;28;20643;-81
2021/12/08 09:36:23;;;;;;;7.70;3.00;;;6.70;92.80;;;;;;5035972;28;20177;-84
2021/12/08 09:39:00;;;;;;;6.03;2.00;;;6.80;93.00;;;;;;5035827;28;20185;-84
2021/12/08 09:41:55;;;;;;;8.17;2.57;;;6.80;91.50;;;;;;5034427;28;20185;-85
2021/12/08 09:44:30;;;;;;;7.93;2.73;;;7.10;93.60;;;;;;5033297;28;20914;-86
2021/12/08 09:46:56;;;;;;;7.10;1.70;;;7.30;91.50;;;;;;5039590;28;20173;-86
2021/12/08 09:49:26;;;;;;;5.90;2.10;;;7.20;90.30;;;;;;5037404;28;20627;-85
2021/12/08 09:51:58;;;;;;;5.23;1.90;;;7.40;91.20;;;;;;5036841;28;20177;-86
2021/12/08 09:54:24;;;;;;;4.20;1.90;;;7.40;89.50;;;;;;5035595;28;20276;-87
2021/12/08 09:56:53;;;;;;;8.70;2.50;;;7.50;88.90;;;;;;5030802;28;20204;-87
2021/12/08 09:59:20;;;;;;;6.60;2.03;;;7.50;86.60;;;;;;5027182;28;20193;-89
2021/12/08 10:01:47;;;;;;;8.53;1.63;;;7.40;85.80;;;;;;5020074;28;20250;-86
2021/12/08 10:04:15;;;;;;;7.53;1.70;;;7.40;85.10;;;;;;5024899;28;20178;-88
2021/12/08 10:06:49;;;;;;;5.27;2.10;;;7.20;86.50;;;;;;5039658;28;20170;-87
2021/12/08 10:09:18;;;;;;;7.10;2.00;;;7.20;89.30;;;;;;5042235;28;20177;-89
2021/12/08 10:11:45;;;;;;;6.03;1.57;;;7.30;90.30;;;;;;5038789;28;20192;-86
2021/12/08 10:14:13;;;;;;;5.93;1.60;;;7.30;89.50;;;;;;5035108;28;20185;-86
2021/12/08 10:16:41;;;;;;;9.07;2.20;;;7.30;89.00;;;;;;5035825;28;20171;-86
2021/12/08 10:19:07;;;;;;;8.10;1.80;;;7.20;87.70;;;;;;5035665;28;20209;-86
2021/12/08 10:21:39;;;;;;;5.57;1.90;;;7.20;88.30;;;;;;5034222;28;20169;-82
2021/12/08 10:24:26;;;;;;;8.67;2.00;;;7.20;88.50;;;;;;5035535;28;20260;-82
2021/12/08 10:27:00;;;;;;;6.47;2.10;;;7.20;86.80;;;;;;5028795;28;20185;-85
2021/12/08 10:29:29;;;;;;;4.63;1.93;;;7.10;88.10;;;;;;5032686;28;20585;-84
2021/12/08 10:31:56;;;;;;;5.70;1.60;;;7.00;89.10;;;;;;5032458;28;20170;-85
2021/12/08 10:34:30;;;;;;;6.43;2.47;;;7.00;88.60;;;;;;5033651;28;20216;-84
2021/12/08 10:37:17;;;;;;;7.20;2.07;;;7.00;87.70;;;;;;5035213;28;20173;-84
2021/12/08 10:39:49;;;;;;;4.97;1.93;;;7.00;88.40;;;;;;5035537;28;20208;-83
2021/12/08 10:42:24;;;;;;;10.20;1.87;;;7.00;88.60;;;;;;5033623;28;20652;-83
2021/12/08 10:45:13;;;;;;;5.17;2.30;;;7.00;87.50;;;;;;5032959;28;20510;-83
2021/12/08 10:48:09;;;;;;;5.80;2.23;;;7.10;87.70;;;;;;5037384;28;20170;-84
2021/12/08 10:56:15;;;;;;;6.03;2.57;;;7.20;87.60;;;;;;5035062;28;20228;-84
2021/12/08 10:58:47;;;;;;;8.00;2.30;;;7.20;84.40;;;;;;5034389;28;20188;-83
2021/12/08 11:01:20;;;;;;;7.37;2.37;;;7.20;84.40;;;;;;5041554;28;20220;-83
2021/12/08 11:04:12;;;;;;;5.23;1.97;;;7.10;85.70;;;;;;5036322;28;20601;-84
2021/12/08 11:06:39;;;;;;;6.23;2.00;;;7.10;87.80;;;;;;5031134;28;20166;-83
2021/12/08 11:09:14;;;;;;;3.83;1.70;;;7.10;87.30;;;;;;5037577;28;20182;-84
2021/12/08 11:11:44;;;;;;;7.53;2.00;;;7.10;85.00;;;;;;5037175;28;20178;-85
2021/12/08 11:14:11;;;;;;;7.30;1.90;;;7.10;83.20;;;;;;5045332;28;20194;-83
2021/12/08 11:16:42;;;;;;;8.23;1.60;;;7.20;85.30;;;;;;5050611;28;20249;-84
2021/12/08 11:19:27;;;;;;;4.87;1.40;;;7.20;84.50;;;;;;5051300;28;20182;-83
2021/12/08 11:22:03;;;;;;;5.03;1.73;;;7.10;83.70;;;;;;5048345;28;20186;-85
2021/12/08 11:24:45;;;;;;;5.20;1.90;;;7.10;83.70;;;;;;5043528;28;20225;-83
2021/12/08 11:27:26;;;;;;;7.43;1.80;;;7.10;84.30;;;;;;5040205;28;20193;-84
2021/12/08 11:29:52;;;;;;;3.60;1.47;;;7.20;84.00;;;;;;5055077;28;20166;-84
2021/12/08 11:32:22;;;;;;;6.87;1.53;;;7.10;84.60;;;;;;5055208;28;20185;-83
2021/12/08 11:34:48;;;;;;;3.90;1.50;;;7.10;85.90;;;;;;5051819;28;20208;-86
2021/12/08 11:37:32;;;;;;;9.47;2.30;;;7.10;85.00;;;;;;5046552;28;20202;-84
2021/12/08 11:40:02;;;;;;;5.43;1.93;;;7.10;85.60;;;;;;5036577;28;20640;-82
2021/12/08 11:42:35;;;;;;;5.03;1.67;;;7.10;85.50;;;;;;5035252;28;20557;-83
2021/12/08 11:45:13;;;;;;;5.03;2.10;;;7.20;84.10;;;;;;5037940;28;20165;-82
2021/12/08 11:47:40;;;;;;;4.50;1.67;;;7.30;83.90;;;;;;5021740;28;20600;-84
2021/12/08 11:50:21;;;;;;;5.83;1.80;;;7.40;82.90;;;;;;5036922;28;20251;-83
2021/12/08 11:52:54;;;;;;;4.70;1.70;;;7.40;82.20;;;;;;5035735;28;20650;-84
2021/12/08 11:55:22;;;;;;;5.83;1.80;;;7.40;81.50;;;;;;5036108;28;20173;-83
2021/12/08 11:58:01;;;;;;;6.60;2.43;;;7.60;79.80;;;;;;5036764;28;20174;-83
2021/12/08 12:00:32;;;;;;;6.73;2.10;;;7.60;77.90;;;;;;5036880;28;20177;-86
2021/12/08 12:03:09;;;;;;;6.40;2.33;;;7.50;78.40;;;;;;5039346;28;20208;-84
2021/12/08 12:05:41;;;;;;;8.27;3.40;;;7.60;77.50;;;;;;5040415;28;20177;-85
2021/12/08 12:08:12;;;;;;;4.73;1.73;;;7.60;78.70;;;;;;5038036;28;20642;-86
2021/12/08 12:10:44;;;;;;;6.33;2.40;;;7.60;77.70;;;;;;5038182;28;20184;-86
2021/12/08 12:13:11;;;;;;;4.13;1.50;;;7.70;75.40;;;;;;5038029;28;20212;-84
2021/12/08 12:15:47;;;;;;;8.93;2.03;;;7.60;75.60;;;;;;5021421;28;20209;-85
2021/12/08 12:18:16;;;;;;;5.43;1.90;;;7.60;77.20;;;;;;5013776;28;20182;-86
2021/12/08 12:20:54;;;;;;;8.23;1.80;;;7.70;76.30;;;;;;5038981;28;20511;-85
2021/12/08 12:23:54;;;;;;;6.50;2.17;;;7.90;74.30;;;;;;5041217;28;20740;-86
2021/12/08 12:26:22;;;;;;;7.73;2.53;;;8.00;73.80;;;;;;5038843;28;20621;-84
2021/12/08 12:29:23;;;;;;;8.50;2.43;;;7.90;73.70;;;;;;5043084;28;20178;-86
2021/12/08 12:32:12;;;;;;;7.93;2.07;;;7.80;74.40;;;;;;5045805;28;20202;-81
2021/12/08 12:34:53;;;;;;;2.60;1.60;;;8.00;71.60;;;;;;5047095;28;20193;-85
2021/12/08 12:37:38;;;;;;;4.37;1.50;;;7.90;73.10;;;;;;5031688;28;20166;-85
2021/12/08 12:40:14;;;;;;;8.80;1.80;;;7.60;75.80;;;;;;5029615;28;20170;-86
2021/12/08 12:42:57;;;;;;;6.80;2.07;;;7.50;79.00;;;;;;5029824;28;20277;-83
2021/12/08 12:45:42;;;;;;;5.20;1.60;;;7.50;79.00;;;;;;5017247;28;20190;-85
2021/12/08 12:48:14;;;;;;;7.10;2.03;;;7.50;78.40;;;;;;5014695;28;20247;-84
2021/12/08 12:51:06;;;;;;;7.33;2.30;;;7.50;78.00;;;;;;5023925;28;20194;-83
2021/12/08 12:53:45;;;;;;;9.07;2.50;;;7.50;79.10;;;;;;5031571;28;20214;-85
2021/12/08 12:56:13;;;;;;;7.37;2.50;;;7.50;80.00;;;;;;5038204;28;20174;-83
2021/12/08 12:58:42;;;;;;;4.53;1.70;;;7.60;78.30;;;;;;5036309;28;20201;-85
2021/12/08 13:01:11;;;;;;;6.73;2.10;;;7.50;78.00;;;;;;5038967;28;20162;-84
2021/12/08 13:03:50;;;;;;;4.40;1.80;;;7.50;77.70;;;;;;5038241;28;20174;-84
2021/12/08 13:06:40;;;;;;;4.00;1.70;;;7.40;77.50;;;;;;5038041;28;20555;-85
2021/12/08 13:09:08;;;;;;;6.53;1.77;;;7.40;80.80;;;;;;5029447;28;20186;-83
2021/12/08 13:11:58;;;;;;;5.77;2.10;;;7.40;80.40;;;;;;5020574;28;20578;-83
2021/12/08 13:14:30;;;;;;;5.73;2.17;;;7.50;77.80;;;;;;5032666;28;20188;-83
2021/12/08 13:17:10;;;;;;;5.03;1.90;;;7.60;78.60;;;;;;5029963;28;20182;-84
2021/12/08 13:19:48;;;;;;;6.43;2.33;;;7.40;79.10;;;;;;5035867;28;20182;-85
2021/12/08 13:22:39;;;;;;;4.83;1.63;;;7.50;78.40;;;;;;5003542;28;20182;-84
2021/12/08 13:25:28;;;;;;;4.77;1.53;;;7.50;77.90;;;;;;5031390;28;20174;-84
2021/12/08 13:28:30;;;;;;;5.03;1.93;;;7.40;80.10;;;;;;5021993;28;20197;-83
2021/12/08 13:31:07;;;;;;;7.33;2.73;;;7.40;79.70;;;;;;5021244;28;20193;-83
2021/12/08 13:34:00;;;;;;;4.97;2.17;;;7.40;81.10;;;;;;5019294;28;20724;-83
2021/12/08 13:36:40;;;;;;;4.23;2.27;;;7.40;77.90;;;;;;5032284;28;20177;-84
2021/12/08 13:39:12;;;;;;;4.87;1.80;;;7.40;79.40;;;;;;5037808;28;20626;-83
2021/12/08 13:41:39;;;;;;;8.40;2.20;;;7.40;80.60;;;;;;5034304;28;20180;-85
2021/12/08 13:44:33;;;;;;;4.27;1.60;;;7.50;80.40;;;;;;5035496;28;20181;-84
2021/12/08 13:46:59;;;;;;;9.47;2.00;;;7.50;80.60;;;;;;5035139;28;20202;-84
2021/12/08 13:49:34;;;;;;;8.07;2.00;;;7.50;81.10;;;;;;5035421;28;20205;-83
2021/12/08 13:52:08;;;;;;;8.13;1.93;;;7.50;81.40;;;;;;5034496;28;20177;-84
2021/12/08 13:54:45;;;;;;;5.33;2.03;;;7.60;80.70;;;;;;5037321;28;20173;-83
2021/12/08 13:57:32;;;;;;;7.27;2.43;;;7.60;79.80;;;;;;5038653;28;20180;-85
2021/12/08 14:00:22;;;;;;;6.07;2.23;;;7.70;79.40;;;;;;5039891;28;20181;-85
2021/12/08 14:03:16;;;;;;;7.40;2.27;;;7.70;80.00;;;;;;5024498;28;20173;-84
2021/12/08 14:05:49;;;;;;;7.93;2.87;;;7.60;79.90;;;;;;5023208;28;20202;-83
2021/12/08 14:08:23;;;;;;;7.00;2.20;;;7.60;80.20;;;;;;5022069;28;20181;-86
2021/12/08 14:10:58;;;;;;;3.97;1.90;;;7.70;80.40;;;;;;5031394;28;20163;-85
2021/12/08 14:13:36;;;;;;;8.50;2.87;;;7.60;79.20;;;;;;5035605;28;20207;-82
2021/12/08 14:16:17;;;;;;;8.53;2.40;;;7.70;79.90;;;;;;5048440;28;20551;-83
2021/12/08 14:19:07;;;;;;;6.83;2.20;;;7.60;79.00;;;;;;5045754;28;20249;-84